createdAt,value
2022-08-01T00:00:06.146Z,13.81
2022-08-01T00:02:36.350Z,13.85
2022-08-01T00:05:03.342Z,13.82
2022-08-01T00:07:29.865Z,13.73
2022-08-01T00:09:56.392Z,13.71
2022-08-01T00:12:22.916Z,13.72
2022-08-01T00:14:49.509Z,13.76
2022-08-01T00:17:16.879Z,13.80
2022-08-01T00:19:43.379Z,13.78
2022-08-01T00:22:10.053Z,13.70
2022-08-01T00:24:37.002Z,13.65
2022-08-01T00:27:04.578Z,13.72
2022-08-01T00:30:11.109Z,13.72
2022-08-01T00:32:17.905Z,13.64
2022-08-01T00:34:44.412Z,13.72
2022-08-01T00:37:11.028Z,13.65
2022-08-01T00:39:42.545Z,13.79
2022-08-01T00:42:11.568Z,13.71
2022-08-01T00:44:38.453Z,13.70
2022-08-01T00:47:06.023Z,13.77
2022-08-01T00:49:32.679Z,13.69
2022-08-01T00:51:59.510Z,13.60
2022-08-01T00:54:27.147Z,13.63
2022-08-01T00:56:55.223Z,13.75
2022-08-01T00:59:23.661Z,13.77
2022-08-01T01:01:52.586Z,13.71
2022-08-01T01:04:20.574Z,13.63
2022-08-01T01:07:04.889Z,13.54
2022-08-01T01:10:01.236Z,13.55
2022-08-01T01:12:50.261Z,13.52
2022-08-01T01:15:21.899Z,13.54
2022-08-01T01:17:59.142Z,13.50
2022-08-01T01:20:29.265Z,13.51
2022-08-01T01:23:13.920Z,13.56
2022-08-01T01:25:50.933Z,13.51
2022-08-01T01:28:37.029Z,13.44
2022-08-01T01:31:07.682Z,13.40
2022-08-01T01:33:47.355Z,13.37
2022-08-01T01:36:15.554Z,13.28
2022-08-01T01:38:44.536Z,13.27
2022-08-01T01:41:12.396Z,13.25
2022-08-01T01:43:39.603Z,13.31
2022-08-01T01:46:06.759Z,13.19
2022-08-01T01:48:34.580Z,13.09
2022-08-01T01:51:01.642Z,13.14
2022-08-01T01:53:29.547Z,13.10
2022-08-01T01:55:58.976Z,13.03
2022-08-01T01:58:26.025Z,12.98
2022-08-01T02:00:53.553Z,12.91
2022-08-01T02:03:20.778Z,12.88
2022-08-01T02:05:47.701Z,12.88
2022-08-01T02:08:16.852Z,12.90
2022-08-01T02:11:04.576Z,12.85
2022-08-01T02:13:33.391Z,12.77
2022-08-01T02:16:00.826Z,12.71
2022-08-01T02:18:27.453Z,12.71
2022-08-01T02:20:55.622Z,12.65
2022-08-01T02:23:24.615Z,12.60
2022-08-01T02:26:09.856Z,12.56
2022-08-01T02:28:50.552Z,12.44
2022-08-01T02:31:20.381Z,12.44
2022-08-01T02:33:53.615Z,12.38
2022-08-01T02:36:31.205Z,12.32
2022-08-01T02:39:01.813Z,12.32
2022-08-01T02:41:28.802Z,12.35
2022-08-01T02:44:00.485Z,12.29
2022-08-01T02:46:31.182Z,12.30
2022-08-01T02:49:00.612Z,12.22
2022-08-01T02:51:27.806Z,12.19
2022-08-01T02:53:55.236Z,12.17
2022-08-01T02:56:22.839Z,12.20
2022-08-01T02:58:50.660Z,12.18
2022-08-01T03:01:18.409Z,12.13
2022-08-01T03:03:46.803Z,12.09
2022-08-01T03:06:14.040Z,12.13
2022-08-01T03:08:40.891Z,12.06
2022-08-01T03:11:08.162Z,12.04
2022-08-01T03:13:34.857Z,12.01
2022-08-01T03:16:03.258Z,11.96
2022-08-01T03:18:30.310Z,11.97
2022-08-01T03:20:57.986Z,12.03
2022-08-01T03:23:37.827Z,12.14
2022-08-01T03:26:06.146Z,12.17
2022-08-01T03:28:33.070Z,12.17
2022-08-01T03:31:00.699Z,12.17
2022-08-01T03:33:27.582Z,12.19
2022-08-01T03:35:55.427Z,12.16
2022-08-01T03:38:25.225Z,12.18
2022-08-01T03:40:58.226Z,12.17
2022-08-01T03:43:33.659Z,12.25
2022-08-01T03:46:09.392Z,12.24
2022-08-01T03:48:38.747Z,12.28
2022-08-01T03:51:06.681Z,12.28
2022-08-01T03:53:33.717Z,12.28
2022-08-01T03:56:02.412Z,12.32
2022-08-01T03:58:30.801Z,12.41
2022-08-01T04:00:58.349Z,12.43
2022-08-01T04:03:25.437Z,12.53
2022-08-01T04:05:52.225Z,12.51
2022-08-01T04:08:18.935Z,12.53
2022-08-01T04:10:46.135Z,12.66
2022-08-01T04:13:13.879Z,12.65
2022-08-01T04:15:40.974Z,12.61
2022-08-01T04:18:07.826Z,12.72
2022-08-01T04:20:34.413Z,12.74
2022-08-01T04:23:04.484Z,12.81
2022-08-01T04:25:35.027Z,12.76
2022-08-01T04:28:04.990Z,12.82
2022-08-01T04:30:34.248Z,12.75
2022-08-01T04:33:03.484Z,12.87
2022-08-01T04:36:03.742Z,12.83
2022-08-01T04:38:24.246Z,12.91
2022-08-01T04:40:51.775Z,12.92
2022-08-01T04:43:19.832Z,13.02
2022-08-01T04:45:48.045Z,13.05
2022-08-01T04:48:16.578Z,13.07
2022-08-01T04:50:43.411Z,13.20
2022-08-01T04:53:17.964Z,13.13
2022-08-01T04:55:47.081Z,13.19
2022-08-01T04:58:17.698Z,13.12
2022-08-01T05:00:45.272Z,13.15
2022-08-01T05:03:11.822Z,13.03
2022-08-01T05:05:38.299Z,13.00
2022-08-01T05:08:07.349Z,13.06
2022-08-01T05:10:34.299Z,12.99
2022-08-01T05:13:00.828Z,12.96
2022-08-01T05:15:28.212Z,12.99
2022-08-01T05:17:55.995Z,13.05
2022-08-01T05:20:22.521Z,13.18
2022-08-01T05:22:49.643Z,13.49
2022-08-01T05:25:17.946Z,13.72
2022-08-01T05:27:46.998Z,13.81
2022-08-01T05:30:15.796Z,13.85
2022-08-01T05:32:42.360Z,13.87
2022-08-01T05:35:09.605Z,13.95
2022-08-01T05:37:36.435Z,13.96
2022-08-01T05:40:04.187Z,13.99
2022-08-01T05:42:31.133Z,14.10
2022-08-01T05:44:57.761Z,14.19
2022-08-01T05:47:24.514Z,14.24
2022-08-01T05:49:51.044Z,14.45
2022-08-01T05:52:17.879Z,14.67
2022-08-01T05:54:44.546Z,15.00
2022-08-01T05:57:11.274Z,15.58
2022-08-01T05:59:39.351Z,16.50
2022-08-01T06:02:06.191Z,17.39
2022-08-01T06:04:32.941Z,18.02
2022-08-01T06:06:59.565Z,18.54
2022-08-01T06:09:26.059Z,19.12
2022-08-01T06:11:52.826Z,20.08
2022-08-01T06:14:19.748Z,20.78
2022-08-01T06:16:46.218Z,21.73
2022-08-01T06:19:12.828Z,22.32
2022-08-01T06:21:39.602Z,22.44
2022-08-01T06:24:06.510Z,23.15
2022-08-01T06:26:33.765Z,23.25
2022-08-01T06:29:00.562Z,24.65
2022-08-01T06:31:31.711Z,24.32
2022-08-01T06:34:00.091Z,24.75
2022-08-01T06:36:26.931Z,26.08
2022-08-01T06:38:53.805Z,27.08
2022-08-01T06:41:20.650Z,27.73
2022-08-01T06:43:47.418Z,27.12
2022-08-01T06:46:14.091Z,27.57
2022-08-01T06:48:40.832Z,28.16
2022-08-01T06:51:10.016Z,28.02
2022-08-01T06:53:37.685Z,29.17
2022-08-01T06:56:06.156Z,29.72
2022-08-01T06:58:33.182Z,30.86
2022-08-01T07:00:59.868Z,29.87
2022-08-01T07:03:27.751Z,29.09
2022-08-01T07:06:13.861Z,30.34
2022-08-01T07:08:42.407Z,32.15
2022-08-01T07:11:08.960Z,32.24
2022-08-01T07:13:35.880Z,32.08
2022-08-01T07:16:10.960Z,32.71
2022-08-01T07:18:37.879Z,32.58
2022-08-01T07:21:05.738Z,31.52
2022-08-01T07:23:34.109Z,31.05
2022-08-01T07:26:06.014Z,30.33
2022-08-01T07:28:32.496Z,30.99
2022-08-01T07:30:59.109Z,30.61
2022-08-01T07:33:25.680Z,31.27
2022-08-01T07:35:52.538Z,30.61
2022-08-01T07:38:19.061Z,29.47
2022-08-01T07:40:46.333Z,30.02
2022-08-01T07:43:13.157Z,28.20
2022-08-01T07:45:43.905Z,27.35
2022-08-01T07:48:13.603Z,26.95
2022-08-01T07:50:40.332Z,26.09
2022-08-01T07:53:06.890Z,25.58
2022-08-01T07:55:33.488Z,24.94
2022-08-01T07:58:00.200Z,24.84
2022-08-01T08:00:26.726Z,24.31
2022-08-01T08:02:54.870Z,24.39
2022-08-01T08:05:58.269Z,23.82
2022-08-01T08:08:09.939Z,23.35
2022-08-01T08:10:36.502Z,23.01
2022-08-01T08:13:05.123Z,22.68
2022-08-01T08:15:32.341Z,22.93
2022-08-01T08:18:00.246Z,22.77
2022-08-01T08:20:28.818Z,23.11
2022-08-01T08:22:56.845Z,22.76
2022-08-01T08:25:23.561Z,22.87
2022-08-01T08:27:53.976Z,23.24
2022-08-01T08:30:21.809Z,23.28
2022-08-01T08:32:48.990Z,23.03
2022-08-01T08:35:22.960Z,22.91
2022-08-01T08:37:50.204Z,22.68
2022-08-01T08:40:23.887Z,22.40
2022-08-01T08:42:51.393Z,22.35
2022-08-01T08:45:18.123Z,22.40
2022-08-01T08:47:44.948Z,22.00
2022-08-01T08:50:11.932Z,22.18
2022-08-01T08:52:40.240Z,21.80
2022-08-01T08:55:07.457Z,22.06
2022-08-01T08:57:34.382Z,22.03
2022-08-01T09:00:01.815Z,22.22
2022-08-01T09:02:28.367Z,22.16
2022-08-01T09:04:55.105Z,22.12
2022-08-01T09:07:23.880Z,22.18
2022-08-01T09:09:51.403Z,21.93
2022-08-01T09:12:19.956Z,21.80
2022-08-01T09:14:47.845Z,21.95
2022-08-01T09:17:14.607Z,22.06
2022-08-01T09:19:54.399Z,21.99
2022-08-01T09:22:24.017Z,22.03
2022-08-01T09:25:00.223Z,21.86
2022-08-01T09:27:26.736Z,21.87
2022-08-01T09:30:01.153Z,21.79
2022-08-01T09:32:34.258Z,21.67
2022-08-01T09:35:46.994Z,21.90
2022-08-01T09:38:22.350Z,21.90
2022-08-01T09:40:53.400Z,22.17
2022-08-01T09:43:21.828Z,22.06
2022-08-01T09:45:49.021Z,21.80
2022-08-01T09:48:17.807Z,22.02
2022-08-01T09:50:49.686Z,22.11
2022-08-01T09:53:29.407Z,21.75
2022-08-01T09:56:10.392Z,21.65
2022-08-01T09:59:01.033Z,21.70
2022-08-01T10:01:42.122Z,21.65
2022-08-01T10:04:18.288Z,21.70
2022-08-01T10:06:57.418Z,21.72
2022-08-01T10:09:36.055Z,22.11
2022-08-01T10:12:07.718Z,21.95
2022-08-01T10:14:35.981Z,21.88
2022-08-01T10:17:05.362Z,22.20
2022-08-01T10:19:33.751Z,22.38
2022-08-01T10:22:03.410Z,22.24
2022-08-01T10:24:31.233Z,22.32
2022-08-01T10:27:08.348Z,22.44
2022-08-01T10:29:46.674Z,22.40
2022-08-01T10:32:28.846Z,22.28
2022-08-01T10:34:57.024Z,22.44
2022-08-01T10:37:24.070Z,22.39
2022-08-01T10:40:14.219Z,22.77
2022-08-01T10:42:46.744Z,23.02
2022-08-01T10:45:15.681Z,23.12
2022-08-01T10:48:01.318Z,23.03
2022-08-01T10:50:55.427Z,22.74
2022-08-01T10:53:31.472Z,22.86
2022-08-01T10:56:14.994Z,22.85
2022-08-01T10:58:44.892Z,22.86
2022-08-01T11:01:17.654Z,23.05
2022-08-01T11:04:04.475Z,23.00
2022-08-01T11:06:34.454Z,22.90
2022-08-01T11:09:06.229Z,23.30
2022-08-01T11:11:37.531Z,23.16
2022-08-01T11:14:10.667Z,23.31
2022-08-01T11:16:40.725Z,23.24
2022-08-01T11:19:12.020Z,23.25
2022-08-01T11:21:57.911Z,23.38
2022-08-01T11:24:50.618Z,23.48
2022-08-01T11:27:25.005Z,23.37
2022-08-01T11:30:20.066Z,23.33
2022-08-01T11:33:10.319Z,23.47
2022-08-01T11:35:36.638Z,23.52
2022-08-01T11:38:29.166Z,23.53
2022-08-01T11:41:23.535Z,23.35
2022-08-01T11:44:34.410Z,23.28
2022-08-01T11:47:08.950Z,23.59
2022-08-01T11:49:48.961Z,23.80
2022-08-01T11:52:24.794Z,23.80
2022-08-01T11:54:54.437Z,24.05
2022-08-01T11:57:34.309Z,24.20
2022-08-01T12:00:08.576Z,24.17
2022-08-01T12:02:35.907Z,24.16
2022-08-01T12:05:05.170Z,24.26
2022-08-01T12:07:33.566Z,24.25
2022-08-01T12:10:18.072Z,24.06
2022-08-01T12:12:52.343Z,24.27
2022-08-01T12:15:21.764Z,24.42
2022-08-01T12:17:58.885Z,24.13
2022-08-01T12:20:32.358Z,24.20
2022-08-01T12:23:01.239Z,24.41
2022-08-01T12:25:28.420Z,24.35
2022-08-01T12:27:56.807Z,24.40
2022-08-01T12:30:25.052Z,24.53
2022-08-01T12:32:53.327Z,24.42
2022-08-01T12:35:24.672Z,24.26
2022-08-01T12:37:53.136Z,24.35
2022-08-01T12:40:25.645Z,24.64
2022-08-01T12:42:54.337Z,24.92
2022-08-01T12:45:23.004Z,24.90
2022-08-01T12:47:50.083Z,24.99
2022-08-01T12:50:19.607Z,24.98
2022-08-01T12:52:46.235Z,24.69
2022-08-01T12:55:15.886Z,24.49
2022-08-01T12:57:46.947Z,24.49
2022-08-01T13:00:17.146Z,24.68
2022-08-01T13:02:46.066Z,25.15
2022-08-01T13:05:14.033Z,25.07
2022-08-01T13:07:51.527Z,25.11
2022-08-01T13:10:31.558Z,24.91
2022-08-01T13:12:59.547Z,25.01
2022-08-01T13:15:29.324Z,25.02
2022-08-01T13:17:56.385Z,25.03
2022-08-01T13:20:27.881Z,25.32
2022-08-01T13:22:54.523Z,25.41
2022-08-01T13:25:23.019Z,25.12
2022-08-01T13:27:53.536Z,25.32
2022-08-01T13:30:22.979Z,25.42
2022-08-01T13:33:09.884Z,25.42
2022-08-01T13:35:36.544Z,25.75
2022-08-01T13:38:04.991Z,25.27
2022-08-01T13:40:31.967Z,25.47
2022-08-01T13:42:58.524Z,25.60
2022-08-01T13:45:26.543Z,25.56
2022-08-01T13:48:03.536Z,25.67
2022-08-01T13:50:39.299Z,25.49
2022-08-01T13:53:06.024Z,25.88
2022-08-01T13:55:35.169Z,26.15
2022-08-01T13:58:03.893Z,25.93
2022-08-01T14:00:30.762Z,26.29
2022-08-01T14:02:57.428Z,26.32
2022-08-01T14:05:24.111Z,25.75
2022-08-01T14:07:51.013Z,25.73
2022-08-01T14:10:24.062Z,25.31
2022-08-01T14:12:50.995Z,25.39
2022-08-01T14:15:38.130Z,25.47
2022-08-01T14:18:06.011Z,25.81
2022-08-01T14:20:34.308Z,25.80
2022-08-01T14:23:00.831Z,25.61
2022-08-01T14:26:04.131Z,25.69
2022-08-01T14:28:14.260Z,25.95
2022-08-01T14:30:42.289Z,26.03
2022-08-01T14:33:09.231Z,25.88
2022-08-01T14:36:03.507Z,26.00
2022-08-01T14:38:31.168Z,25.82
2022-08-01T14:40:58.940Z,25.97
2022-08-01T14:43:32.440Z,26.18
2022-08-01T14:46:01.123Z,26.16
2022-08-01T14:48:27.746Z,25.96
2022-08-01T14:50:54.471Z,26.25
2022-08-01T14:53:21.389Z,25.95
2022-08-01T14:55:48.157Z,25.69
2022-08-01T14:58:15.415Z,25.88
2022-08-01T15:00:42.555Z,25.84
2022-08-01T15:03:09.403Z,25.73
2022-08-01T15:05:37.394Z,25.64
2022-08-01T15:08:07.313Z,25.65
2022-08-01T15:10:34.255Z,25.25
2022-08-01T15:13:03.409Z,25.03
2022-08-01T15:15:30.922Z,24.81
2022-08-01T15:17:58.263Z,24.78
2022-08-01T15:20:26.305Z,24.61
2022-08-01T15:22:53.897Z,24.63
2022-08-01T15:25:20.848Z,24.66
2022-08-01T15:27:47.452Z,24.44
2022-08-01T15:30:14.352Z,24.40
2022-08-01T15:32:41.047Z,24.42
2022-08-01T15:35:08.323Z,24.43
2022-08-01T15:37:39.599Z,24.43
2022-08-01T15:40:09.977Z,24.84
2022-08-01T15:42:36.751Z,24.85
2022-08-01T15:45:04.998Z,24.86
2022-08-01T15:47:31.763Z,24.52
2022-08-01T15:50:03.148Z,24.38
2022-08-01T15:52:31.578Z,24.00
2022-08-01T15:54:58.348Z,23.92
2022-08-01T15:57:25.348Z,23.76
2022-08-01T15:59:51.952Z,23.67
2022-08-01T16:02:18.689Z,23.69
2022-08-01T16:04:46.087Z,23.78
2022-08-01T16:07:13.029Z,23.61
2022-08-01T16:09:40.771Z,23.38
2022-08-01T16:12:09.057Z,23.35
2022-08-01T16:14:37.307Z,23.37
2022-08-01T16:17:04.911Z,23.40
2022-08-01T16:19:31.561Z,23.39
2022-08-01T16:21:58.110Z,23.34
2022-08-01T16:24:29.087Z,23.24
2022-08-01T16:26:55.696Z,23.15
2022-08-01T16:29:22.345Z,23.21
2022-08-01T16:31:52.314Z,23.03
2022-08-01T16:34:35.579Z,23.03
2022-08-01T16:37:04.948Z,23.04
2022-08-01T16:39:34.357Z,22.83
2022-08-01T16:42:01.880Z,22.75
2022-08-01T16:44:33.865Z,22.78
2022-08-01T16:47:03.217Z,22.74
2022-08-01T16:49:31.973Z,22.81
2022-08-01T16:51:58.744Z,22.88
2022-08-01T16:54:26.520Z,22.86
2022-08-01T16:56:54.181Z,22.75
2022-08-01T16:59:20.778Z,22.69
2022-08-01T17:02:01.101Z,22.67
2022-08-01T17:04:29.654Z,22.77
2022-08-01T17:06:56.225Z,22.73
2022-08-01T17:09:22.901Z,22.71
2022-08-01T17:11:49.798Z,22.73
2022-08-01T17:14:16.690Z,22.70
2022-08-01T17:16:43.363Z,22.70
2022-08-01T17:19:10.364Z,22.65
2022-08-01T17:21:40.967Z,22.68
2022-08-01T17:24:08.067Z,22.63
2022-08-01T17:26:34.704Z,22.64
2022-08-01T17:29:01.305Z,22.64
2022-08-01T17:31:27.777Z,22.66
2022-08-01T17:33:55.229Z,22.60
2022-08-01T17:36:22.087Z,22.60
2022-08-01T17:38:48.775Z,22.54
2022-08-01T17:41:15.517Z,22.50
2022-08-01T17:43:42.461Z,22.44
2022-08-01T17:46:09.253Z,22.37
2022-08-01T17:48:36.065Z,22.29
2022-08-01T17:51:03.825Z,22.25
2022-08-01T17:53:30.477Z,22.20
2022-08-01T17:55:58.882Z,22.12
2022-08-01T17:58:45.062Z,22.07
2022-08-01T18:01:15.064Z,22.04
2022-08-01T18:03:42.142Z,21.92
2022-08-01T18:06:19.419Z,21.92
2022-08-01T18:08:49.733Z,21.86
2022-08-01T18:11:20.067Z,21.81
2022-08-01T18:13:47.766Z,21.74
2022-08-01T18:16:15.805Z,21.75
2022-08-01T18:18:43.792Z,21.65
2022-08-01T18:21:13.591Z,21.59
2022-08-01T18:23:41.632Z,21.57
2022-08-01T18:26:18.984Z,21.55
2022-08-01T18:28:47.049Z,21.52
2022-08-01T18:31:16.777Z,21.44
2022-08-01T18:33:43.720Z,21.44
2022-08-01T18:36:15.315Z,21.37
2022-08-01T18:38:58.556Z,21.33
2022-08-01T18:41:25.390Z,21.31
2022-08-01T18:43:52.482Z,21.27
2022-08-01T18:46:30.966Z,21.20
2022-08-01T18:48:58.197Z,21.13
2022-08-01T18:51:26.492Z,21.13
2022-08-01T18:53:55.827Z,21.15
2022-08-01T18:56:22.491Z,21.16
2022-08-01T18:58:49.058Z,21.17
2022-08-01T19:01:15.647Z,21.21
2022-08-01T19:03:42.897Z,21.16
2022-08-01T19:06:09.711Z,21.15
2022-08-01T19:08:38.090Z,21.07
2022-08-01T19:11:05.333Z,21.05
2022-08-01T19:13:32.708Z,21.04
2022-08-01T19:16:00.182Z,21.04
2022-08-01T19:18:27.493Z,21.02
2022-08-01T19:20:54.240Z,21.01
2022-08-01T19:23:39.664Z,21.02
2022-08-01T19:26:12.467Z,21.05
2022-08-01T19:28:46.388Z,21.06
2022-08-01T19:31:15.038Z,21.03
2022-08-01T19:33:42.114Z,21.03
2022-08-01T19:36:15.359Z,21.02
2022-08-01T19:38:42.163Z,21.07
2022-08-01T19:41:09.000Z,21.06
2022-08-01T19:43:42.405Z,21.07
2022-08-01T19:46:17.445Z,21.06
2022-08-01T19:48:46.540Z,21.05
2022-08-01T19:51:16.984Z,21.04
2022-08-01T19:53:45.358Z,21.02
2022-08-01T19:56:13.329Z,21.00
2022-08-01T19:58:43.047Z,20.91
2022-08-01T20:01:14.429Z,20.90
2022-08-01T20:03:42.913Z,20.91
2022-08-01T20:06:09.987Z,20.89
2022-08-01T20:08:37.370Z,20.87
2022-08-01T20:11:11.927Z,20.86
2022-08-01T20:13:40.662Z,20.85
2022-08-01T20:16:07.420Z,20.81
2022-08-01T20:18:34.028Z,20.79
2022-08-01T20:21:01.097Z,20.78
2022-08-01T20:23:31.132Z,20.76
2022-08-01T20:26:00.801Z,20.77
2022-08-01T20:28:29.363Z,20.75
2022-08-01T20:31:01.079Z,20.75
2022-08-01T20:33:30.461Z,20.74
2022-08-01T20:35:57.428Z,20.66
2022-08-01T20:38:28.869Z,20.66
2022-08-01T20:40:59.162Z,20.63
2022-08-01T20:43:28.776Z,20.61
2022-08-01T20:45:56.027Z,20.63
2022-08-01T20:48:23.230Z,20.61
2022-08-01T20:51:08.556Z,20.61
2022-08-01T20:53:40.914Z,20.58
2022-08-01T20:56:14.531Z,20.56
2022-08-01T20:59:05.221Z,20.54
2022-08-01T21:01:39.953Z,20.54
2022-08-01T21:04:14.905Z,20.53
2022-08-01T21:06:52.430Z,20.52
2022-08-01T21:09:23.432Z,20.51
2022-08-01T21:12:03.688Z,20.48
2022-08-01T21:14:58.916Z,20.47
2022-08-01T21:17:36.792Z,20.42
2022-08-01T21:20:07.490Z,20.44
2022-08-01T21:22:38.208Z,20.39
2022-08-01T21:25:07.691Z,20.38
2022-08-01T21:27:35.768Z,20.40
2022-08-01T21:30:05.696Z,20.40
2022-08-01T21:32:35.514Z,20.40
2022-08-01T21:35:04.441Z,20.42
2022-08-01T21:37:31.486Z,20.41
2022-08-01T21:39:58.776Z,20.42
2022-08-01T21:42:27.312Z,20.42
2022-08-01T21:44:55.679Z,20.40
2022-08-01T21:47:23.063Z,20.37
2022-08-01T21:49:49.624Z,20.38
2022-08-01T21:52:22.305Z,20.36
2022-08-01T21:54:57.764Z,20.37
2022-08-01T21:57:34.717Z,20.35
2022-08-01T22:00:25.579Z,20.31
2022-08-01T22:03:21.473Z,20.30
2022-08-01T22:05:51.082Z,20.29
2022-08-01T22:08:25.099Z,20.29
2022-08-01T22:11:00.334Z,20.27
2022-08-01T22:13:27.183Z,20.24
2022-08-01T22:15:56.918Z,20.22
2022-08-01T22:18:24.882Z,20.21
2022-08-01T22:20:51.607Z,20.19
2022-08-01T22:23:21.289Z,20.18
2022-08-01T22:25:51.548Z,20.13
2022-08-01T22:28:19.088Z,20.17
2022-08-01T22:30:45.931Z,20.15
2022-08-01T22:33:16.141Z,20.17
2022-08-01T22:35:48.930Z,20.17
2022-08-01T22:38:17.825Z,20.17
2022-08-01T22:40:51.147Z,20.17
2022-08-01T22:43:26.696Z,20.14
2022-08-01T22:46:04.452Z,20.13
2022-08-01T22:48:44.505Z,20.11
2022-08-01T22:51:32.985Z,20.11
2022-08-01T22:54:16.614Z,20.12
2022-08-01T22:56:50.624Z,20.10
2022-08-01T22:59:42.296Z,20.05
2022-08-01T23:02:17.499Z,20.04
2022-08-01T23:04:55.516Z,20.04
2022-08-01T23:07:29.318Z,20.02
2022-08-01T23:10:04.435Z,19.98
2022-08-01T23:12:31.489Z,19.98
2022-08-01T23:14:59.154Z,19.96
2022-08-01T23:17:33.571Z,19.93
2022-08-01T23:20:03.517Z,19.89
2022-08-01T23:22:32.348Z,19.90
2022-08-01T23:25:06.877Z,19.88
2022-08-01T23:27:51.291Z,19.84
2022-08-01T23:30:38.655Z,19.82
2022-08-01T23:33:05.847Z,19.81
2022-08-01T23:35:36.902Z,19.79
2022-08-01T23:38:12.632Z,19.76
2022-08-01T23:40:39.082Z,19.72
2022-08-01T23:43:08.332Z,19.76
2022-08-01T23:46:02.384Z,19.75
2022-08-01T23:48:31.514Z,19.76
2022-08-01T23:51:05.241Z,19.78
2022-08-01T23:53:33.723Z,19.78
2022-08-01T23:56:03.449Z,19.74
2022-08-01T23:58:38.689Z,19.73
